createdAt,value
2023-11-06T00:00:37.621Z,89.18
2023-11-06T00:01:37.541Z,89.61
2023-11-06T00:02:37.472Z,89.51
2023-11-06T00:03:37.403Z,89.41
2023-11-06T00:04:37.288Z,89.08
2023-11-06T00:05:37.370Z,89.41
2023-11-06T00:06:37.121Z,90.27
2023-11-06T00:07:37.042Z,90.27
2023-11-06T00:08:36.955Z,89.51
2023-11-06T00:09:36.868Z,89.47
2023-11-06T00:10:36.782Z,90.46
2023-11-06T00:11:36.704Z,89.98
2023-11-06T00:12:36.618Z,89.89
2023-11-06T00:13:36.536Z,89.89
2023-11-06T00:14:36.452Z,90.08
2023-11-06T00:15:36.369Z,89.89
2023-11-06T00:16:36.294Z,90.17
2023-11-06T00:17:36.323Z,90.17
2023-11-06T00:18:36.165Z,90.08
2023-11-06T00:19:36.045Z,89.89
2023-11-06T00:20:35.958Z,89.41
2023-11-06T00:21:35.879Z,90.08
2023-11-06T00:22:35.838Z,89.89
2023-11-06T00:23:35.706Z,89.89
2023-11-06T00:24:35.620Z,89.89
2023-11-06T00:25:35.545Z,90.08
2023-11-06T00:26:35.461Z,89.89
2023-11-06T00:27:35.373Z,90.65
2023-11-06T00:28:35.292Z,90.08
2023-11-06T00:29:35.216Z,90.84
2023-11-06T00:30:35.120Z,91.03
2023-11-06T00:31:35.056Z,90.36
2023-11-06T00:32:34.979Z,91.03
2023-11-06T00:33:34.899Z,90.17
2023-11-06T00:34:34.796Z,90.84
2023-11-06T00:35:34.713Z,90.94
2023-11-06T00:36:34.628Z,90.17
2023-11-06T00:37:34.570Z,90.65
2023-11-06T00:38:34.461Z,90.65
2023-11-06T00:39:34.380Z,90.46
2023-11-06T00:40:34.309Z,89.89
2023-11-06T00:41:34.215Z,89.89
2023-11-06T00:42:34.159Z,90.56
2023-11-06T00:43:34.043Z,90.08
2023-11-06T00:44:33.964Z,89.98
2023-11-06T00:45:33.882Z,90.17
2023-11-06T00:46:33.803Z,90.36
2023-11-06T00:47:33.740Z,89.89
2023-11-06T00:48:33.652Z,90.17
2023-11-06T00:49:33.547Z,90.17
2023-11-06T00:50:33.464Z,90.36
2023-11-06T00:51:33.387Z,89.98
2023-11-06T00:52:33.305Z,90.22
2023-11-06T00:53:33.225Z,90.41
2023-11-06T00:54:33.132Z,90.08
2023-11-06T00:55:33.055Z,90.84
2023-11-06T00:56:32.969Z,90.27
2023-11-06T00:57:32.902Z,90.46
2023-11-06T00:58:32.825Z,90.12
2023-11-06T00:59:32.725Z,90.89
2023-11-06T01:00:32.644Z,90.89
2023-11-06T01:01:32.563Z,90.84
2023-11-06T01:02:32.486Z,90.08
2023-11-06T01:03:32.417Z,90.94
2023-11-06T01:04:32.311Z,90.94
2023-11-06T01:05:32.277Z,90.46
2023-11-06T01:06:32.146Z,89.89
2023-11-06T01:07:32.074Z,90.36
2023-11-06T01:08:31.976Z,90.27
2023-11-06T01:09:31.894Z,90.08
2023-11-06T01:10:31.807Z,90.08
2023-11-06T01:11:31.736Z,90.46
2023-11-06T01:12:31.644Z,90.65
2023-11-06T01:13:31.561Z,89.89
2023-11-06T01:14:31.480Z,90.75
2023-11-06T01:15:31.420Z,90.94
2023-11-06T01:16:31.316Z,90.17
2023-11-06T01:17:31.270Z,90.36
2023-11-06T01:18:31.257Z,90.27
2023-11-06T01:19:31.059Z,90.27
2023-11-06T01:20:30.982Z,91.13
2023-11-06T01:21:30.899Z,90.94
2023-11-06T01:22:39.088Z,91.03
2023-11-06T01:23:30.730Z,90.17
2023-11-06T01:24:30.653Z,89.89
2023-11-06T01:25:30.565Z,90.56
2023-11-06T01:26:30.491Z,91.13
2023-11-06T01:27:30.398Z,90.36
2023-11-06T01:28:30.339Z,90.56
2023-11-06T01:29:30.273Z,89.79
2023-11-06T01:30:30.150Z,91.03
2023-11-06T01:31:30.073Z,91.13
2023-11-06T01:32:30.097Z,91.13
2023-11-06T01:33:29.979Z,91.51
2023-11-06T01:34:29.822Z,91.13
2023-11-06T01:35:29.742Z,90.46
2023-11-06T01:36:29.658Z,90.94
2023-11-06T01:37:29.588Z,90.94
2023-11-06T01:38:29.493Z,91.41
2023-11-06T01:39:29.409Z,91.79
2023-11-06T01:40:29.325Z,92.18
2023-11-06T01:41:29.335Z,92.55
2023-11-06T01:42:29.151Z,92.94
2023-11-06T01:43:29.069Z,92.46
2023-11-06T01:44:28.988Z,92.94
2023-11-06T01:45:28.912Z,92.46
2023-11-06T01:46:28.825Z,93.13
2023-11-06T01:47:28.790Z,93.70
2023-11-06T01:48:28.875Z,92.65
2023-11-06T01:49:28.577Z,93.51
2023-11-06T01:50:28.498Z,92.65
2023-11-06T01:51:28.412Z,92.65
2023-11-06T01:52:28.325Z,92.74
2023-11-06T01:53:28.272Z,92.03
2023-11-06T01:54:28.168Z,92.08
2023-11-06T01:55:28.086Z,92.32
2023-11-06T01:56:28.018Z,91.70
2023-11-06T01:57:27.922Z,91.27
2023-11-06T01:58:27.831Z,91.36
2023-11-06T01:59:27.782Z,91.41
2023-11-06T02:00:27.664Z,91.74
2023-11-06T02:01:27.582Z,91.22
2023-11-06T02:02:27.654Z,91.36
2023-11-06T02:03:27.459Z,90.36
2023-11-06T02:04:27.362Z,90.60
2023-11-06T02:05:27.285Z,91.03
2023-11-06T02:06:27.168Z,91.08
2023-11-06T02:07:27.081Z,91.08
2023-11-06T02:08:27.022Z,90.98
2023-11-06T02:09:26.917Z,90.27
2023-11-06T02:10:26.833Z,90.41
2023-11-06T02:11:26.791Z,90.65
2023-11-06T02:12:26.666Z,90.50
2023-11-06T02:13:26.575Z,90.94
2023-11-06T02:14:26.499Z,91.22
2023-11-06T02:15:26.397Z,91.46
2023-11-06T02:16:26.312Z,90.94
2023-11-06T02:17:26.226Z,90.98
2023-11-06T02:18:26.159Z,91.03
2023-11-06T02:19:26.056Z,90.36
2023-11-06T02:20:26.020Z,90.65
2023-11-06T02:21:25.887Z,90.65
2023-11-06T02:22:25.798Z,90.56
2023-11-06T02:23:25.755Z,89.98
2023-11-06T02:24:25.632Z,89.13
2023-11-06T02:25:25.548Z,89.51
2023-11-06T02:26:25.486Z,89.51
2023-11-06T02:27:25.382Z,89.03
2023-11-06T02:28:25.298Z,88.84
2023-11-06T02:29:25.265Z,88.37
2023-11-06T02:30:25.128Z,88.27
2023-11-06T02:31:25.044Z,88.46
2023-11-06T02:32:25.044Z,87.51
2023-11-06T02:33:24.986Z,87.70
2023-11-06T02:34:24.905Z,87.03
2023-11-06T02:35:24.799Z,86.94
2023-11-06T02:36:24.625Z,86.75
2023-11-06T02:37:24.542Z,86.36
2023-11-06T02:38:24.492Z,86.36
2023-11-06T02:39:24.373Z,86.27
2023-11-06T02:40:24.308Z,85.99
2023-11-06T02:41:24.248Z,85.60
2023-11-06T02:42:24.120Z,85.32
2023-11-06T02:43:24.042Z,84.94
2023-11-06T02:44:23.971Z,85.41
2023-11-06T02:45:23.881Z,84.08
2023-11-06T02:46:23.796Z,83.41
2023-11-06T02:47:23.739Z,83.32
2023-11-06T02:48:23.677Z,82.84
2023-11-06T02:49:23.547Z,83.03
2023-11-06T02:50:23.500Z,82.27
2023-11-06T02:51:23.384Z,82.18
2023-11-06T02:52:23.298Z,82.18
2023-11-06T02:53:23.238Z,82.08
2023-11-06T02:54:23.136Z,81.41
2023-11-06T02:55:23.048Z,81.23
2023-11-06T02:56:22.982Z,80.27
2023-11-06T02:57:22.886Z,80.55
2023-11-06T02:58:22.806Z,79.99
2023-11-06T02:59:22.804Z,79.89
2023-11-06T03:00:22.648Z,79.70
2023-11-06T03:01:22.551Z,79.32
2023-11-06T03:02:22.492Z,78.56
2023-11-06T03:03:22.423Z,78.75
2023-11-06T03:04:22.304Z,79.32
2023-11-06T03:05:22.386Z,79.13
2023-11-06T03:06:22.136Z,78.85
2023-11-06T03:07:22.056Z,78.85
2023-11-06T03:08:21.984Z,79.13
2023-11-06T03:09:21.889Z,79.51
2023-11-06T03:10:21.806Z,79.89
2023-11-06T03:11:21.763Z,79.03
2023-11-06T03:12:21.637Z,78.75
2023-11-06T03:13:21.576Z,79.60
2023-11-06T03:14:21.502Z,79.41
2023-11-06T03:15:21.391Z,78.94
2023-11-06T03:16:21.307Z,79.22
2023-11-06T03:17:21.280Z,79.89
2023-11-06T03:18:21.217Z,79.41
2023-11-06T03:19:21.070Z,79.75
2023-11-06T03:20:21.009Z,79.66
2023-11-06T03:21:20.886Z,79.47
2023-11-06T03:22:20.809Z,80.04
2023-11-06T03:23:20.728Z,80.36
2023-11-06T03:24:20.644Z,80.42
2023-11-06T03:25:20.554Z,80.52
2023-11-06T03:26:20.543Z,80.23
2023-11-06T03:27:20.393Z,80.33
2023-11-06T03:28:20.311Z,80.33
2023-11-06T03:29:20.262Z,80.13
2023-11-06T03:30:20.147Z,80.23
2023-11-06T03:31:20.057Z,80.61
2023-11-06T03:32:20.036Z,80.42
2023-11-06T03:33:19.902Z,80.33
2023-11-06T03:34:19.810Z,80.33
2023-11-06T03:35:19.790Z,79.94
2023-11-06T03:36:19.642Z,80.13
2023-11-06T03:37:19.564Z,79.66
2023-11-06T03:38:19.558Z,81.37
2023-11-06T03:39:19.391Z,81.47
2023-11-06T03:40:19.312Z,80.90
2023-11-06T03:41:19.290Z,81.37
2023-11-06T03:42:19.148Z,81.28
2023-11-06T03:43:19.072Z,80.52
2023-11-06T03:44:19.034Z,81.28
2023-11-06T03:45:18.917Z,81.18
2023-11-06T03:46:18.809Z,81.47
2023-11-06T03:47:18.768Z,81.47
2023-11-06T03:48:18.678Z,82.04
2023-11-06T03:49:18.557Z,82.32
2023-11-06T03:50:18.477Z,82.14
2023-11-06T03:51:18.392Z,82.04
2023-11-06T03:52:18.319Z,82.23
2023-11-06T03:53:18.277Z,82.32
2023-11-06T03:54:18.140Z,82.32
2023-11-06T03:55:18.055Z,82.32
2023-11-06T03:56:18.021Z,82.04
2023-11-06T03:57:17.901Z,82.14
2023-11-06T03:58:17.812Z,82.14
2023-11-06T03:59:17.730Z,82.61
2023-11-06T04:00:17.713Z,82.42
2023-11-06T04:01:17.565Z,82.32
2023-11-06T04:02:17.505Z,82.99
2023-11-06T04:03:17.435Z,82.70
2023-11-06T04:04:17.303Z,83.18
2023-11-06T04:05:17.329Z,83.28
2023-11-06T04:06:17.215Z,83.28
2023-11-06T04:07:17.099Z,83.65
2023-11-06T04:08:17.065Z,83.85
2023-11-06T04:09:16.914Z,83.37
2023-11-06T04:10:16.803Z,83.18
2023-11-06T04:11:16.783Z,83.37
2023-11-06T04:12:16.641Z,83.56
2023-11-06T04:13:16.560Z,83.37
2023-11-06T04:14:16.523Z,83.18
2023-11-06T04:15:16.404Z,83.37
2023-11-06T04:16:16.315Z,84.33
2023-11-06T04:17:16.274Z,83.85
2023-11-06T04:18:16.216Z,83.37
2023-11-06T04:19:16.052Z,83.56
2023-11-06T04:20:16.031Z,84.33
2023-11-06T04:21:15.883Z,83.85
2023-11-06T04:22:15.819Z,83.75
2023-11-06T04:23:15.784Z,83.75
2023-11-06T04:24:15.636Z,83.85
2023-11-06T04:25:15.557Z,84.04
2023-11-06T04:26:15.477Z,84.13
2023-11-06T04:27:15.393Z,84.13
2023-11-06T04:28:15.306Z,84.33
2023-11-06T04:29:15.268Z,83.28
2023-11-06T04:30:15.138Z,82.99
2023-11-06T04:31:15.059Z,83.85
2023-11-06T04:32:15.020Z,83.47
2023-11-06T04:33:15.020Z,83.47
2023-11-06T04:34:14.814Z,83.09
2023-11-06T04:35:14.814Z,82.90
2023-11-06T04:36:14.632Z,83.85
2023-11-06T04:37:14.561Z,83.56
2023-11-06T04:38:14.531Z,83.09
2023-11-06T04:39:14.403Z,83.18
2023-11-06T04:40:14.318Z,83.37
2023-11-06T04:41:14.256Z,82.99
2023-11-06T04:42:14.153Z,83.09
2023-11-06T04:43:14.057Z,82.42
2023-11-06T04:44:14.034Z,82.99
2023-11-06T04:45:13.888Z,83.28
2023-11-06T04:46:13.798Z,83.09
2023-11-06T04:47:13.752Z,82.42
2023-11-06T04:48:13.723Z,82.90
2023-11-06T04:49:13.553Z,82.51
2023-11-06T04:50:13.649Z,82.61
2023-11-06T04:51:13.388Z,82.42
2023-11-06T04:52:13.298Z,81.76
2023-11-06T04:53:13.243Z,82.32
2023-11-06T04:54:13.132Z,82.42
2023-11-06T04:55:13.056Z,82.42
2023-11-06T04:56:13.020Z,81.76
2023-11-06T04:57:12.887Z,82.04
2023-11-06T04:58:12.799Z,82.23
2023-11-06T04:59:12.719Z,81.37
2023-11-06T05:00:12.632Z,81.85
2023-11-06T05:01:12.550Z,81.18
2023-11-06T05:02:12.482Z,81.66
2023-11-06T05:03:12.458Z,81.18
2023-11-06T05:04:12.320Z,81.47
2023-11-06T05:05:12.591Z,81.76
2023-11-06T05:06:12.181Z,82.14
2023-11-06T05:07:12.052Z,81.95
2023-11-06T05:08:12.012Z,81.85
2023-11-06T05:09:12.191Z,81.85
2023-11-06T05:10:11.792Z,81.95
2023-11-06T05:11:11.725Z,81.85
2023-11-06T05:12:11.629Z,82.32
2023-11-06T05:13:11.541Z,81.95
2023-11-06T05:14:11.477Z,82.04
2023-11-06T05:15:11.370Z,81.56
2023-11-06T05:16:11.471Z,82.04
2023-11-06T05:17:11.227Z,82.23
2023-11-06T05:18:11.251Z,82.70
2023-11-06T05:19:11.041Z,82.23
2023-11-06T05:20:11.422Z,82.42
2023-11-06T05:21:10.873Z,82.80
2023-11-06T05:22:15.268Z,83.09
2023-11-06T05:23:10.733Z,82.42
2023-11-06T05:24:10.621Z,82.32
2023-11-06T05:25:10.583Z,82.70
2023-11-06T05:26:10.460Z,83.09
2023-11-06T05:27:10.383Z,82.99
2023-11-06T05:28:10.289Z,82.90
2023-11-06T05:29:10.223Z,83.37
2023-11-06T05:30:10.123Z,83.37
2023-11-06T05:31:10.036Z,83.37
2023-11-06T05:32:12.363Z,82.99
2023-11-06T05:33:09.895Z,83.37
2023-11-06T05:34:09.818Z,83.09
2023-11-06T05:35:10.026Z,82.99
2023-11-06T05:36:09.618Z,82.80
2023-11-06T05:37:09.535Z,83.37
2023-11-06T05:38:09.469Z,82.80
2023-11-06T05:39:09.370Z,83.18
2023-11-06T05:40:09.284Z,83.37
2023-11-06T05:41:09.266Z,83.94
2023-11-06T05:42:09.138Z,82.80
2023-11-06T05:43:09.034Z,84.04
2023-11-06T05:44:08.967Z,84.04
2023-11-06T05:45:08.897Z,83.18
2023-11-06T05:46:08.800Z,83.85
2023-11-06T05:47:08.787Z,84.23
2023-11-06T05:48:08.640Z,83.94
2023-11-06T05:49:08.542Z,83.09
2023-11-06T05:50:08.479Z,83.09
2023-11-06T05:51:08.365Z,83.94
2023-11-06T05:52:08.286Z,83.65
2023-11-06T05:53:08.211Z,83.94
2023-11-06T05:54:08.121Z,83.14
2023-11-06T05:55:08.035Z,83.33
2023-11-06T05:56:08.020Z,83.18
2023-11-06T05:57:07.864Z,83.23
2023-11-06T05:58:07.790Z,83.90
2023-11-06T05:59:07.732Z,83.14
2023-11-06T06:00:07.617Z,83.33
2023-11-06T06:01:07.552Z,83.47
2023-11-06T06:02:07.493Z,83.33
2023-11-06T06:04:38.870Z,83.14
2023-11-06T06:05:38.886Z,83.37
2023-11-06T06:06:38.686Z,83.33
2023-11-06T06:07:38.638Z,83.04
2023-11-06T06:08:38.523Z,82.76
2023-11-06T06:09:38.445Z,83.42
2023-11-06T06:10:38.357Z,83.04
2023-11-06T06:11:38.272Z,83.14
2023-11-06T06:12:38.195Z,83.04
2023-11-06T06:13:38.121Z,82.38
2023-11-06T06:14:38.025Z,82.09
2023-11-06T06:15:37.942Z,82.09
2023-11-06T06:16:37.864Z,81.43
2023-11-06T06:17:37.857Z,80.66
2023-11-06T06:18:37.736Z,80.76
2023-11-06T06:19:37.608Z,82.19
2023-11-06T06:20:37.584Z,81.43
2023-11-06T06:21:37.443Z,80.95
2023-11-06T06:22:37.356Z,80.99
2023-11-06T06:23:37.319Z,82.09
2023-11-06T06:24:37.179Z,81.33
2023-11-06T06:25:37.104Z,82.00
2023-11-06T06:26:37.017Z,81.09
2023-11-06T06:27:36.930Z,80.95
2023-11-06T06:28:36.848Z,82.00
2023-11-06T06:29:36.777Z,81.81
2023-11-06T06:30:36.683Z,82.09
2023-11-06T06:31:36.621Z,82.42
2023-11-06T06:32:36.782Z,82.04
2023-11-06T06:33:36.507Z,82.99
2023-11-06T06:34:36.354Z,83.09
2023-11-06T06:35:36.304Z,83.28
2023-11-06T06:36:36.194Z,81.37
2023-11-06T06:37:36.101Z,81.47
2023-11-06T06:38:36.019Z,81.85
2023-11-06T06:39:35.932Z,81.95
2023-11-06T06:40:35.844Z,82.14
2023-11-06T06:41:35.812Z,82.14
2023-11-06T06:42:35.693Z,81.18
2023-11-06T06:43:35.606Z,82.14
2023-11-06T06:44:35.549Z,82.23
2023-11-06T06:45:35.434Z,82.61
2023-11-06T06:46:35.354Z,83.37
2023-11-06T06:47:35.507Z,83.75
2023-11-06T06:48:35.251Z,83.94
2023-11-06T06:49:35.105Z,84.61
2023-11-06T06:50:35.043Z,84.61
2023-11-06T06:51:34.928Z,84.80
2023-11-06T06:52:34.851Z,84.61
2023-11-06T06:53:34.782Z,84.23
2023-11-06T06:54:34.678Z,84.42
2023-11-06T06:55:34.603Z,84.13
2023-11-06T06:56:34.553Z,85.18
2023-11-06T06:57:34.431Z,85.08
2023-11-06T06:58:34.354Z,85.18
2023-11-06T06:59:34.393Z,85.08
2023-11-06T07:00:34.175Z,85.75
2023-11-06T07:01:34.092Z,86.13
2023-11-06T07:02:34.159Z,85.94
2023-11-06T07:03:33.975Z,85.66
2023-11-06T07:04:33.868Z,85.56
2023-11-06T07:05:33.930Z,85.75
2023-11-06T07:06:33.771Z,86.99
2023-11-06T07:07:33.596Z,87.08
2023-11-06T07:08:33.579Z,86.42
2023-11-06T07:09:33.477Z,87.18
2023-11-06T07:10:33.350Z,87.18
2023-11-06T07:11:33.304Z,86.80
2023-11-06T07:12:33.186Z,86.22
2023-11-06T07:13:33.101Z,86.32
2023-11-06T07:14:33.360Z,89.89
2023-11-06T07:15:32.932Z,90.27
2023-11-06T07:16:32.846Z,90.36
2023-11-06T07:17:32.822Z,90.36
2023-11-06T07:18:32.675Z,91.79
2023-11-06T07:19:32.689Z,92.08
2023-11-06T07:20:32.561Z,91.22
2023-11-06T07:21:32.436Z,91.31
2023-11-06T07:22:32.352Z,91.99
2023-11-06T07:23:32.333Z,92.08
2023-11-06T07:24:32.176Z,92.74
2023-11-06T07:25:32.106Z,92.84
2023-11-06T07:26:32.041Z,93.32
2023-11-06T07:27:31.935Z,93.51
2023-11-06T07:28:31.852Z,92.74
2023-11-06T07:29:31.814Z,93.60
2023-11-06T07:30:31.680Z,92.46
2023-11-06T07:31:31.594Z,93.22
2023-11-06T07:32:31.638Z,93.89
2023-11-06T07:33:31.532Z,93.70
2023-11-06T07:34:31.348Z,93.79
2023-11-06T07:35:31.330Z,93.70
2023-11-06T07:36:31.187Z,93.89
2023-11-06T07:37:31.097Z,93.41
2023-11-06T07:38:31.037Z,93.65
2023-11-06T07:39:30.934Z,93.65
2023-11-06T07:40:30.852Z,94.13
2023-11-06T07:41:30.835Z,93.55
2023-11-06T07:42:30.686Z,94.22
2023-11-06T07:43:30.615Z,94.32
2023-11-06T07:44:32.674Z,94.60
2023-11-06T07:45:30.434Z,94.89
2023-11-06T07:46:30.357Z,94.89
2023-11-06T07:47:30.334Z,95.75
2023-11-06T07:48:30.236Z,95.36
2023-11-06T07:49:30.101Z,97.36
2023-11-06T07:50:30.024Z,96.41
2023-11-06T07:51:29.950Z,96.80
2023-11-06T07:52:29.863Z,96.03
2023-11-06T07:53:29.798Z,97.56
2023-11-06T07:54:29.694Z,97.84
2023-11-06T07:55:29.621Z,97.36
2023-11-06T07:56:29.570Z,96.32
2023-11-06T07:57:30.882Z,96.98
2023-11-06T07:58:29.984Z,97.56
2023-11-06T07:59:29.574Z,97.36
2023-11-06T08:00:39.905Z,97.94
2023-11-06T08:01:29.111Z,98.22
2023-11-06T08:02:29.148Z,99.08
2023-11-06T08:03:29.009Z,98.65
2023-11-06T08:04:28.865Z,99.04
2023-11-06T08:05:28.818Z,98.08
2023-11-06T08:06:28.748Z,98.36
2023-11-06T08:07:28.648Z,99.80
2023-11-06T08:08:28.526Z,99.32
2023-11-06T08:09:28.454Z,99.51
2023-11-06T08:10:28.367Z,99.70
2023-11-06T08:11:28.312Z,99.80
2023-11-06T08:12:28.203Z,99.51
2023-11-06T08:13:28.119Z,98.85
2023-11-06T08:14:28.060Z,99.13
2023-11-06T08:15:27.953Z,99.70
2023-11-06T08:16:27.872Z,99.99
2023-11-06T08:17:27.880Z,99.99
2023-11-06T08:18:27.866Z,99.99
2023-11-06T08:19:27.627Z,99.99
2023-11-06T08:20:27.685Z,99.99
2023-11-06T08:21:28.091Z,99.99
2023-11-06T08:22:27.376Z,99.99
2023-11-06T08:23:27.313Z,99.99
2023-11-06T08:24:27.831Z,99.99
2023-11-06T08:25:27.133Z,99.99
2023-11-06T08:26:27.733Z,99.99
2023-11-06T08:27:26.960Z,99.99
2023-11-06T08:28:26.891Z,99.99
2023-11-06T08:29:26.842Z,99.99
2023-11-06T08:30:26.722Z,99.99
2023-11-06T08:31:26.689Z,99.99
2023-11-06T08:32:26.628Z,99.99
2023-11-06T08:33:26.514Z,99.99
2023-11-06T08:34:26.389Z,99.99
2023-11-06T08:35:26.478Z,99.99
2023-11-06T08:36:26.226Z,99.99
2023-11-06T08:37:26.144Z,99.99
2023-11-06T08:38:26.101Z,99.99
2023-11-06T08:39:25.973Z,99.99
2023-11-06T08:40:25.889Z,99.99
2023-11-06T08:41:25.848Z,99.99
2023-11-06T08:42:25.730Z,99.99
2023-11-06T08:43:25.656Z,99.99
2023-11-06T08:44:25.581Z,99.99
2023-11-06T08:45:25.488Z,99.99
2023-11-06T08:46:25.858Z,99.99
2023-11-06T08:47:25.328Z,99.99
2023-11-06T08:48:25.302Z,99.99
2023-11-06T08:49:26.379Z,99.99
2023-11-06T08:50:25.163Z,99.99
2023-11-06T08:51:24.987Z,99.99
2023-11-06T08:52:24.927Z,99.99
2023-11-06T08:53:24.858Z,99.99
2023-11-06T08:54:24.760Z,99.99
2023-11-06T08:55:24.662Z,99.99
2023-11-06T08:56:24.595Z,99.99
2023-11-06T08:57:24.500Z,99.99
2023-11-06T08:58:24.416Z,99.99
2023-11-06T08:59:24.361Z,99.99
2023-11-06T09:00:24.248Z,99.99
2023-11-06T09:01:24.184Z,99.99
2023-11-06T09:02:24.157Z,99.99
2023-11-06T09:03:24.105Z,99.99
2023-11-06T09:04:23.924Z,99.99
2023-11-06T09:05:23.847Z,99.99
2023-11-06T09:06:23.871Z,99.99
2023-11-06T09:07:23.679Z,99.99
2023-11-06T09:08:23.602Z,99.99
2023-11-06T09:09:23.509Z,99.99
2023-11-06T09:10:23.424Z,99.99
2023-11-06T09:11:23.364Z,99.99
2023-11-06T09:12:23.264Z,99.99
2023-11-06T09:13:23.180Z,99.99
2023-11-06T09:14:23.151Z,99.99
2023-11-06T09:15:23.020Z,99.99
2023-11-06T09:16:22.939Z,99.99
2023-11-06T09:17:22.901Z,99.99
2023-11-06T09:18:22.848Z,99.99
2023-11-06T09:19:22.701Z,99.99
2023-11-06T09:20:22.633Z,99.99
2023-11-06T09:21:22.523Z,99.99
2023-11-06T09:22:22.482Z,99.99
2023-11-06T09:23:22.450Z,99.99
2023-11-06T09:24:22.282Z,99.99
2023-11-06T09:25:22.191Z,99.99
2023-11-06T09:26:22.144Z,99.99
2023-11-06T09:27:22.039Z,99.99
2023-11-06T09:28:21.960Z,99.99
2023-11-06T09:29:21.894Z,99.99
2023-11-06T09:30:21.819Z,99.99
2023-11-06T09:31:21.714Z,99.99
2023-11-06T09:32:21.653Z,99.99
2023-11-06T09:33:21.601Z,99.99
2023-11-06T09:34:21.519Z,99.99
2023-11-06T09:35:21.412Z,99.99
2023-11-06T09:36:21.304Z,99.99
2023-11-06T09:37:21.224Z,99.99
2023-11-06T09:38:21.170Z,99.99
2023-11-06T09:39:21.064Z,99.99
2023-11-06T09:40:20.991Z,99.99
2023-11-06T09:41:20.937Z,99.99
2023-11-06T09:42:20.820Z,99.99
2023-11-06T09:43:21.456Z,99.99
2023-11-06T09:44:20.728Z,99.99
2023-11-06T09:45:20.572Z,99.99
2023-11-06T09:46:20.496Z,99.99
2023-11-06T09:47:20.415Z,99.99
2023-11-06T09:48:20.609Z,99.99
2023-11-06T09:49:20.280Z,99.99
2023-11-06T09:50:20.303Z,99.99
2023-11-06T09:51:20.116Z,99.99
2023-11-06T09:52:20.032Z,99.99
2023-11-06T09:53:19.954Z,99.99
2023-11-06T09:54:19.846Z,99.99
2023-11-06T09:55:19.772Z,99.99
2023-11-06T09:56:19.728Z,99.99
2023-11-06T09:57:19.602Z,99.99
2023-11-06T09:58:19.536Z,99.99
2023-11-06T09:59:19.499Z,99.99
2023-11-06T10:00:19.362Z,99.99
2023-11-06T10:01:19.283Z,99.99
2023-11-06T10:02:19.215Z,99.99
2023-11-06T10:03:19.208Z,99.99
2023-11-06T10:04:19.078Z,99.99
2023-11-06T10:05:19.030Z,99.99
2023-11-06T10:06:18.882Z,99.99
2023-11-06T10:07:18.795Z,99.99
2023-11-06T10:08:18.718Z,99.99
2023-11-06T10:09:18.633Z,99.99
2023-11-06T10:10:18.558Z,99.99
2023-11-06T10:11:19.098Z,99.99
2023-11-06T10:12:18.500Z,99.99
2023-11-06T10:13:18.307Z,99.99
2023-11-06T10:14:18.258Z,99.99
2023-11-06T10:15:18.150Z,99.99
2023-11-06T10:16:18.078Z,99.99
2023-11-06T10:17:18.015Z,99.99
2023-11-06T10:18:18.111Z,99.99
2023-11-06T10:19:17.884Z,99.99
2023-11-06T10:20:18.146Z,99.99
2023-11-06T10:21:17.670Z,99.99
2023-11-06T10:22:17.590Z,99.99
2023-11-06T10:23:17.528Z,99.99
2023-11-06T10:24:17.438Z,99.99
2023-11-06T10:25:17.352Z,99.99
2023-11-06T10:26:17.367Z,99.99
2023-11-06T10:27:17.187Z,99.99
2023-11-06T10:28:17.119Z,99.99
2023-11-06T10:29:17.061Z,99.99
2023-11-06T10:30:16.963Z,99.99
2023-11-06T10:31:17.466Z,99.99
2023-11-06T10:32:18.005Z,99.99
2023-11-06T10:33:16.947Z,99.99
2023-11-06T10:34:16.723Z,99.99
2023-11-06T10:35:16.599Z,99.99
2023-11-06T10:36:16.504Z,99.99
2023-11-06T10:37:16.401Z,99.99
2023-11-06T10:38:16.372Z,99.99
2023-11-06T10:39:16.227Z,99.99
2023-11-06T10:40:16.683Z,99.99
2023-11-06T10:41:16.110Z,99.99
2023-11-06T10:42:16.010Z,99.99
2023-11-06T10:43:15.920Z,99.99
2023-11-06T10:44:15.859Z,99.99
2023-11-06T10:45:15.877Z,99.99
2023-11-06T10:46:15.679Z,99.99
2023-11-06T10:47:15.654Z,99.99
2023-11-06T10:48:15.693Z,99.99
2023-11-06T10:49:15.576Z,99.99
2023-11-06T10:50:15.369Z,99.99
2023-11-06T10:51:15.962Z,99.99
2023-11-06T10:52:15.215Z,99.99
2023-11-06T10:53:15.148Z,99.99
2023-11-06T10:54:15.036Z,99.99
2023-11-06T10:55:22.936Z,99.99
2023-11-06T10:56:14.903Z,99.99
2023-11-06T10:57:14.798Z,99.99
2023-11-06T10:58:14.715Z,99.99
2023-11-06T10:59:14.649Z,99.99
2023-11-06T11:00:14.561Z,99.99
2023-11-06T11:01:14.479Z,99.99
2023-11-06T11:02:14.407Z,99.99
2023-11-06T11:03:14.388Z,99.99
2023-11-06T11:04:14.329Z,99.99
2023-11-06T11:05:14.341Z,99.99
2023-11-06T11:06:14.113Z,99.99
2023-11-06T11:07:13.995Z,99.99
2023-11-06T11:08:13.981Z,99.99
2023-11-06T11:09:13.836Z,99.99
2023-11-06T11:10:13.759Z,99.99
2023-11-06T11:11:13.732Z,99.99
2023-11-06T11:12:13.604Z,99.99
2023-11-06T11:13:13.514Z,99.76
2023-11-06T11:14:13.495Z,99.48
2023-11-06T11:15:13.374Z,99.19
2023-11-06T11:16:13.276Z,98.43
2023-11-06T11:17:13.238Z,98.62
2023-11-06T11:18:13.253Z,96.89
2023-11-06T11:19:13.117Z,96.47
2023-11-06T11:20:12.980Z,95.89
2023-11-06T11:21:12.886Z,94.55
2023-11-06T11:23:55.425Z,89.37
2023-11-06T11:24:55.299Z,87.11
2023-11-06T11:26:59.109Z,81.40
2023-11-06T11:27:59.007Z,81.15
2023-11-06T11:30:02.840Z,78.94
2023-11-06T11:31:02.756Z,77.46
2023-11-06T11:33:06.730Z,79.71
2023-11-06T11:34:07.932Z,79.71
2023-11-06T11:36:10.357Z,78.32
2023-11-06T11:37:10.268Z,78.08
2023-11-06T11:39:16.444Z,75.81
2023-11-06T11:40:14.030Z,75.71
2023-11-06T11:42:17.918Z,75.10
2023-11-06T11:43:17.789Z,74.58
2023-11-06T11:45:21.737Z,76.82
2023-11-06T11:46:21.553Z,75.79
2023-11-06T11:48:25.497Z,72.07
2023-11-06T11:49:25.312Z,70.37
2023-11-06T11:51:29.169Z,68.48
2023-11-06T11:52:29.060Z,68.65
2023-11-06T11:54:21.840Z,65.82
2023-11-06T11:55:21.757Z,63.53
2023-11-06T11:57:25.631Z,62.28
2023-11-06T11:58:25.524Z,63.54
2023-11-06T12:00:29.470Z,60.79
2023-11-06T12:01:29.298Z,59.34
2023-11-06T12:02:30.430Z,55.90
2023-11-06T12:03:29.218Z,57.77
2023-11-06T12:04:29.114Z,56.93
2023-11-06T12:05:29.060Z,56.25
2023-11-06T12:06:28.980Z,56.68
2023-11-06T12:07:28.896Z,58.26
2023-11-06T12:08:30.245Z,59.00
2023-11-06T12:09:28.744Z,60.52
2023-11-06T12:10:28.664Z,61.42
2023-11-06T12:11:28.669Z,63.70
2023-11-06T12:12:28.537Z,65.01
2023-11-06T12:13:28.456Z,64.60
2023-11-06T12:14:28.563Z,66.20
2023-11-06T12:15:28.315Z,67.25
2023-11-06T12:16:28.242Z,67.51
2023-11-06T12:17:28.481Z,68.82
2023-11-06T12:18:28.201Z,69.68
2023-11-06T12:19:28.172Z,70.97
2023-11-06T12:20:28.416Z,69.21
2023-11-06T12:21:27.897Z,68.21
2023-11-06T12:22:27.821Z,69.27
2023-11-06T12:23:27.772Z,68.95
2023-11-06T12:24:27.656Z,70.49
2023-11-06T12:25:27.587Z,70.58
2023-11-06T12:26:28.681Z,70.84
2023-11-06T12:27:27.436Z,71.51
2023-11-06T12:28:27.365Z,71.66
2023-11-06T12:29:27.297Z,72.72
2023-11-06T12:30:27.219Z,73.74
2023-11-06T12:31:27.142Z,74.89
2023-11-06T12:32:29.535Z,75.46
2023-11-06T12:33:27.096Z,77.00
2023-11-06T12:34:26.941Z,77.00
2023-11-06T12:35:26.896Z,76.90
2023-11-06T12:36:26.786Z,76.81
2023-11-06T12:37:26.686Z,77.00
2023-11-06T12:38:27.600Z,79.38
2023-11-06T12:39:26.540Z,75.37
2023-11-06T12:40:26.473Z,72.67
2023-11-06T12:41:26.393Z,71.04
2023-11-06T12:42:26.311Z,70.11
2023-11-06T12:43:26.232Z,68.89
2023-11-06T12:44:27.722Z,69.62
2023-11-06T12:45:26.124Z,71.37
2023-11-06T12:46:26.015Z,72.48
2023-11-06T12:47:26.011Z,70.37
2023-11-06T12:48:25.902Z,67.52
2023-11-06T12:49:25.842Z,62.57
2023-11-06T12:50:25.746Z,62.57
2023-11-06T12:51:25.651Z,60.99
2023-11-06T12:52:25.580Z,59.48
2023-11-06T12:53:25.537Z,59.89
2023-11-06T12:54:28.491Z,58.84
2023-11-06T12:55:25.358Z,60.42
2023-11-06T12:56:25.307Z,61.90
2023-11-06T12:57:25.215Z,62.83
2023-11-06T12:58:25.138Z,65.01
2023-11-06T12:59:25.106Z,66.61
2023-11-06T13:00:27.484Z,69.85
2023-11-06T13:01:24.959Z,66.49
2023-11-06T13:02:24.968Z,63.76
2023-11-06T13:03:24.868Z,64.12
2023-11-06T13:04:24.852Z,65.59
2023-11-06T13:05:24.672Z,64.63
2023-11-06T13:06:24.574Z,62.79
2023-11-06T13:07:24.504Z,60.89